createdAt,value
2022-10-02T00:01:27.836Z,20.50
2022-10-02T00:03:57.084Z,20.60
2022-10-02T00:06:38.877Z,21.10
2022-10-02T00:09:12.090Z,20.70
2022-10-02T00:11:45.928Z,20.50
2022-10-02T00:14:18.211Z,21.00
2022-10-02T00:16:50.132Z,20.50
2022-10-02T00:19:20.604Z,20.80
2022-10-02T00:22:16.784Z,20.40
2022-10-02T00:24:51.394Z,21.00
2022-10-02T00:27:47.757Z,20.70
2022-10-02T00:30:18.655Z,20.80
2022-10-02T00:33:02.745Z,20.40
2022-10-02T00:36:03.949Z,20.60
2022-10-02T00:38:48.800Z,20.50
2022-10-02T00:42:18.396Z,21.00
2022-10-02T00:45:15.173Z,20.80
2022-10-02T00:47:53.426Z,20.50
2022-10-02T00:50:36.879Z,21.00
2022-10-02T00:53:16.580Z,20.60
2022-10-02T00:56:08.704Z,20.80
2022-10-02T00:58:55.532Z,20.80
2022-10-02T01:01:33.817Z,20.70
2022-10-02T01:04:07.021Z,20.40
2022-10-02T01:06:35.185Z,20.40
2022-10-02T01:09:04.092Z,20.60
2022-10-02T01:11:33.127Z,20.40
2022-10-02T01:14:01.493Z,20.30
2022-10-02T01:16:31.864Z,20.50
2022-10-02T01:19:00.112Z,20.60
2022-10-02T01:21:37.199Z,20.50
2022-10-02T01:24:13.787Z,20.70
2022-10-02T01:26:43.579Z,20.50
2022-10-02T01:29:11.611Z,20.80
2022-10-02T01:31:40.100Z,21.00
2022-10-02T01:34:08.165Z,21.00
2022-10-02T01:36:36.616Z,20.80
2022-10-02T01:39:05.064Z,20.50
2022-10-02T01:41:36.327Z,21.00
2022-10-02T01:44:05.640Z,20.40
2022-10-02T01:46:39.924Z,20.80
2022-10-02T01:49:21.149Z,20.50
2022-10-02T01:52:16.013Z,20.40
2022-10-02T01:55:04.798Z,21.00
2022-10-02T01:57:46.591Z,20.40
2022-10-02T02:00:19.299Z,20.70
2022-10-02T02:02:58.450Z,20.70
2022-10-02T02:05:44.282Z,20.60
2022-10-02T02:08:20.477Z,20.50
2022-10-02T02:11:00.287Z,20.30
2022-10-02T02:13:33.252Z,20.50
2022-10-02T02:16:07.611Z,20.40
2022-10-02T02:18:43.246Z,20.40
2022-10-02T02:21:22.156Z,20.70
2022-10-02T02:23:51.381Z,20.40
2022-10-02T02:26:20.286Z,20.70
2022-10-02T02:28:53.725Z,20.70
2022-10-02T02:31:29.538Z,20.40
2022-10-02T02:34:01.692Z,20.40
2022-10-02T02:36:36.864Z,20.80
2022-10-02T02:39:10.836Z,20.70
2022-10-02T02:41:43.092Z,20.70
2022-10-02T02:44:18.836Z,20.90
2022-10-02T02:47:06.558Z,20.60
2022-10-02T02:49:47.933Z,20.40
2022-10-02T02:52:21.632Z,20.40
2022-10-02T02:54:55.633Z,20.40
2022-10-02T02:57:31.018Z,20.40
2022-10-02T03:00:03.759Z,20.50
2022-10-02T03:02:33.166Z,20.90
2022-10-02T03:05:01.189Z,20.60
2022-10-02T03:07:29.363Z,20.50
2022-10-02T03:10:12.561Z,20.70
2022-10-02T03:12:53.314Z,20.50
2022-10-02T03:15:29.930Z,20.70
2022-10-02T03:18:21.587Z,20.40
2022-10-02T03:21:03.466Z,21.00
2022-10-02T03:23:46.496Z,20.50
2022-10-02T03:26:20.865Z,20.40
2022-10-02T03:28:57.085Z,20.80
2022-10-02T03:31:29.587Z,20.40
2022-10-02T03:34:00.319Z,20.40
2022-10-02T03:36:28.959Z,20.60
2022-10-02T03:39:23.760Z,20.60
2022-10-02T03:41:49.396Z,20.40
2022-10-02T03:44:17.387Z,20.60
2022-10-02T03:46:45.467Z,20.70
2022-10-02T03:49:14.896Z,20.40
2022-10-02T03:51:43.196Z,20.50
2022-10-02T03:54:18.853Z,20.70
2022-10-02T03:56:56.149Z,20.70
2022-10-02T03:59:38.183Z,21.00
2022-10-02T04:02:12.373Z,20.80
2022-10-02T04:04:49.376Z,20.60
2022-10-02T04:07:22.812Z,20.80
2022-10-02T04:10:04.968Z,21.00
2022-10-02T04:12:39.660Z,20.80
2022-10-02T04:15:19.760Z,20.40
2022-10-02T04:17:56.895Z,20.40
2022-10-02T04:20:37.184Z,20.90
2022-10-02T04:23:15.980Z,20.60
2022-10-02T04:25:48.368Z,21.00
2022-10-02T04:28:21.150Z,20.40
2022-10-02T04:30:49.135Z,20.50
2022-10-02T04:33:20.928Z,20.50
2022-10-02T04:36:03.362Z,20.80
2022-10-02T04:39:08.406Z,20.90
2022-10-02T04:42:05.924Z,20.40
2022-10-02T04:44:50.907Z,20.80
2022-10-02T04:47:48.139Z,20.70
2022-10-02T04:50:38.709Z,20.80
2022-10-02T04:53:42.253Z,20.40
2022-10-02T04:56:30.781Z,20.50
2022-10-02T04:59:26.604Z,20.70
2022-10-02T05:02:11.530Z,20.40
2022-10-02T05:05:03.550Z,20.70
2022-10-02T05:07:59.167Z,20.40
2022-10-02T05:10:47.379Z,20.80
2022-10-02T05:13:38.614Z,20.70
2022-10-02T05:16:40.906Z,20.70
2022-10-02T05:19:40.056Z,20.70
2022-10-02T05:22:27.379Z,20.40
2022-10-02T05:25:19.284Z,20.50
2022-10-02T05:28:09.949Z,20.40
2022-10-02T05:30:49.252Z,20.90
2022-10-02T05:33:39.521Z,21.00
2022-10-02T05:36:25.676Z,20.70
2022-10-02T05:39:08.482Z,20.90
2022-10-02T05:41:46.985Z,20.40
2022-10-02T05:44:20.453Z,20.50
2022-10-02T05:46:57.228Z,20.60
2022-10-02T05:49:31.425Z,20.40
2022-10-02T05:52:04.193Z,20.90
2022-10-02T05:54:43.832Z,20.50
2022-10-02T05:57:21.533Z,20.60
2022-10-02T06:00:01.801Z,21.10
2022-10-02T06:02:39.844Z,20.50
2022-10-02T06:05:17.581Z,20.40
2022-10-02T06:07:50.164Z,20.70
2022-10-02T06:10:21.998Z,20.90
2022-10-02T06:12:56.560Z,20.80
2022-10-02T06:15:31.309Z,20.50
2022-10-02T06:18:04.295Z,20.50
2022-10-02T06:20:38.705Z,20.70
2022-10-02T06:23:12.817Z,20.40
2022-10-02T06:25:46.098Z,21.10
2022-10-02T06:28:19.957Z,20.90
2022-10-02T06:30:58.253Z,20.70
2022-10-02T06:33:29.996Z,20.80
2022-10-02T06:36:28.065Z,20.80
2022-10-02T06:39:22.463Z,21.10
2022-10-02T06:42:03.208Z,20.50
2022-10-02T06:44:39.800Z,21.10
2022-10-02T06:47:25.385Z,20.50
2022-10-02T06:50:12.492Z,20.80
2022-10-02T06:52:50.820Z,20.80
2022-10-02T06:55:43.265Z,20.80
2022-10-02T06:58:35.717Z,21.10
2022-10-02T07:01:14.334Z,21.00
2022-10-02T07:04:09.744Z,21.20
2022-10-02T07:06:50.349Z,21.10
2022-10-02T07:09:46.328Z,21.10
2022-10-02T07:12:37.833Z,21.20
2022-10-02T07:15:32.397Z,21.20
2022-10-02T07:18:11.861Z,21.10
2022-10-02T07:20:51.595Z,21.00
2022-10-02T07:23:48.708Z,21.20
2022-10-02T07:26:38.898Z,21.30
2022-10-02T07:29:34.211Z,21.10
2022-10-02T07:32:25.817Z,21.20
2022-10-02T07:35:03.489Z,20.70
2022-10-02T07:37:46.660Z,21.20
2022-10-02T07:40:32.309Z,20.90
2022-10-02T07:43:24.115Z,21.20
2022-10-02T07:46:03.424Z,21.00
2022-10-02T07:48:51.009Z,21.00
2022-10-02T07:51:50.556Z,21.20
2022-10-02T07:54:38.446Z,21.10
2022-10-02T07:57:26.887Z,20.70
2022-10-02T08:00:01.940Z,21.40
2022-10-02T08:02:40.201Z,20.70
2022-10-02T08:05:19.797Z,21.20
2022-10-02T08:07:50.785Z,21.00
2022-10-02T08:10:26.577Z,21.00
2022-10-02T08:13:04.362Z,21.10
2022-10-02T08:15:36.385Z,20.90
2022-10-02T08:18:32.998Z,21.10
2022-10-02T08:21:04.312Z,21.20
2022-10-02T08:23:40.766Z,21.20
2022-10-02T08:26:18.164Z,21.30
2022-10-02T08:28:53.260Z,21.20
2022-10-02T08:31:23.186Z,21.20
2022-10-02T08:33:51.849Z,21.20
2022-10-02T08:36:55.745Z,21.20
2022-10-02T08:40:01.404Z,21.30
2022-10-02T08:43:08.501Z,21.20
2022-10-02T08:47:07.188Z,21.30
2022-10-02T08:50:09.640Z,21.30
2022-10-02T08:53:27.388Z,21.30
2022-10-02T08:56:26.273Z,21.30
2022-10-02T08:59:36.993Z,21.30
2022-10-02T09:02:39.868Z,21.30
2022-10-02T09:06:08.121Z,21.20
2022-10-02T09:09:29.445Z,21.60
2022-10-02T09:12:38.722Z,21.40
2022-10-02T09:15:17.761Z,21.60
2022-10-02T09:17:49.479Z,21.50
2022-10-02T09:20:43.034Z,21.70
2022-10-02T09:24:03.667Z,21.40
2022-10-02T09:26:54.972Z,21.80
2022-10-02T09:30:05.829Z,21.60
2022-10-02T09:33:30.063Z,21.60
2022-10-02T09:36:48.172Z,22.10
2022-10-02T09:40:23.084Z,21.50
2022-10-02T09:43:54.836Z,21.50
2022-10-02T09:46:51.116Z,21.90
2022-10-02T09:49:52.895Z,21.90
2022-10-02T09:53:04.340Z,22.00
2022-10-02T09:56:05.846Z,21.90
2022-10-02T09:59:11.329Z,21.80
2022-10-02T10:02:17.088Z,21.60
2022-10-02T10:05:33.921Z,22.00
2022-10-02T10:08:41.740Z,21.90
2022-10-02T10:12:01.723Z,22.00
2022-10-02T10:15:22.002Z,21.60
2022-10-02T10:18:42.649Z,22.00
2022-10-02T10:21:49.352Z,21.90
2022-10-02T10:25:03.472Z,22.10
2022-10-02T10:27:56.371Z,21.90
2022-10-02T10:31:20.025Z,21.90
2022-10-02T10:34:35.262Z,21.80
2022-10-02T10:37:24.724Z,21.80
2022-10-02T10:40:32.351Z,21.60
2022-10-02T10:43:44.998Z,21.90
2022-10-02T10:46:45.676Z,21.60
2022-10-02T10:50:04.263Z,21.60
2022-10-02T10:52:54.866Z,22.10
2022-10-02T10:55:40.112Z,21.70
2022-10-02T10:58:21.169Z,21.70
2022-10-02T11:01:07.181Z,21.90
2022-10-02T11:04:02.361Z,21.60
2022-10-02T11:06:59.381Z,22.10
2022-10-02T11:10:08.684Z,22.20
2022-10-02T11:13:03.723Z,22.20
2022-10-02T11:16:00.366Z,22.20
2022-10-02T11:19:01.877Z,22.30
2022-10-02T11:22:18.940Z,22.20
2022-10-02T11:25:20.437Z,22.10
2022-10-02T11:28:34.230Z,22.30
2022-10-02T11:31:30.875Z,22.10
2022-10-02T11:34:28.595Z,22.10
2022-10-02T11:37:14.036Z,22.40
2022-10-02T11:40:34.014Z,22.20
2022-10-02T11:43:28.686Z,21.90
2022-10-02T11:46:37.027Z,22.10
2022-10-02T11:49:40.886Z,22.30
2022-10-02T11:52:23.803Z,22.00
2022-10-02T11:55:11.361Z,22.00
2022-10-02T11:57:53.675Z,22.10
2022-10-02T12:00:58.633Z,22.10
2022-10-02T12:03:36.402Z,22.20
2022-10-02T12:06:15.553Z,22.20
2022-10-02T12:09:01.259Z,22.10
2022-10-02T12:11:40.696Z,22.20
2022-10-02T12:14:29.445Z,22.10
2022-10-02T12:17:11.789Z,22.10
2022-10-02T12:20:13.386Z,22.30
2022-10-02T12:23:09.304Z,22.00
2022-10-02T12:26:07.486Z,22.20
2022-10-02T12:28:49.124Z,22.20
2022-10-02T12:31:22.962Z,22.40
2022-10-02T12:34:01.134Z,22.40
2022-10-02T12:36:48.152Z,22.30
2022-10-02T12:39:32.680Z,22.50
2022-10-02T12:42:12.805Z,22.40
2022-10-02T12:45:20.237Z,22.40
2022-10-02T12:48:23.181Z,22.50
2022-10-02T12:51:19.893Z,22.20
2022-10-02T12:54:53.224Z,22.40
2022-10-02T12:57:56.782Z,22.30
2022-10-02T13:00:33.933Z,22.20
2022-10-02T13:03:47.598Z,22.40
2022-10-02T13:06:49.564Z,22.40
2022-10-02T13:09:31.747Z,22.80
2022-10-02T13:12:14.243Z,22.30
2022-10-02T13:15:19.558Z,22.80
2022-10-02T13:17:59.688Z,22.30
2022-10-02T13:20:39.684Z,22.60
2022-10-02T13:23:25.040Z,22.70
2022-10-02T13:26:04.064Z,22.80
2022-10-02T13:29:18.368Z,22.70
2022-10-02T13:32:02.636Z,22.80
2022-10-02T13:34:58.600Z,22.60
2022-10-02T13:37:40.754Z,22.60
2022-10-02T13:40:25.748Z,22.40
2022-10-02T13:43:30.223Z,22.70
2022-10-02T13:46:07.080Z,22.50
2022-10-02T13:48:47.350Z,22.30
2022-10-02T13:51:23.474Z,22.70
2022-10-02T13:54:14.625Z,22.50
2022-10-02T13:56:52.461Z,22.40
2022-10-02T13:59:49.420Z,22.40
2022-10-02T14:02:40.251Z,22.50
2022-10-02T14:05:21.809Z,22.40
2022-10-02T14:08:09.312Z,22.50
2022-10-02T14:10:52.174Z,22.50
2022-10-02T14:13:39.049Z,22.20
2022-10-02T14:16:45.497Z,22.30
2022-10-02T14:19:40.237Z,22.30
2022-10-02T14:22:28.772Z,22.30
2022-10-02T14:25:43.376Z,22.30
2022-10-02T14:28:45.071Z,22.30
2022-10-02T14:31:47.140Z,22.20
2022-10-02T14:34:47.784Z,22.50
2022-10-02T14:37:35.729Z,22.30
2022-10-02T14:40:14.662Z,22.40
2022-10-02T14:43:11.913Z,22.10
2022-10-02T14:46:18.614Z,22.60
2022-10-02T14:49:22.975Z,22.30
2022-10-02T14:52:09.300Z,22.10
2022-10-02T14:54:59.354Z,22.20
2022-10-02T14:58:04.299Z,22.30
2022-10-02T15:00:41.281Z,22.30
2022-10-02T15:03:35.268Z,22.30
2022-10-02T15:06:23.313Z,22.40
2022-10-02T15:08:57.276Z,22.40
2022-10-02T15:12:07.855Z,22.10
2022-10-02T15:14:50.677Z,22.20
2022-10-02T15:17:48.554Z,22.20
2022-10-02T15:20:27.669Z,22.30
2022-10-02T15:22:59.272Z,22.30
2022-10-02T15:25:56.046Z,22.30
2022-10-02T15:28:42.854Z,22.20
2022-10-02T15:31:23.721Z,22.10
2022-10-02T15:34:12.073Z,22.00
2022-10-02T15:37:01.076Z,22.20
2022-10-02T15:40:04.753Z,22.30
2022-10-02T15:42:51.269Z,22.00
2022-10-02T15:45:36.750Z,22.20
2022-10-02T15:48:25.584Z,22.00
2022-10-02T15:51:05.227Z,22.20
2022-10-02T15:53:55.833Z,22.10
2022-10-02T15:56:47.259Z,22.10
2022-10-02T15:59:52.965Z,21.60
2022-10-02T16:02:57.161Z,22.00
2022-10-02T16:05:44.807Z,22.00
2022-10-02T16:08:56.727Z,22.10
2022-10-02T16:12:09.840Z,22.10
2022-10-02T16:14:53.305Z,22.00
2022-10-02T16:17:39.177Z,22.00
2022-10-02T16:20:41.656Z,22.00
2022-10-02T16:23:29.963Z,21.90
2022-10-02T16:26:19.570Z,22.00
2022-10-02T16:29:01.565Z,22.00
2022-10-02T16:31:53.786Z,21.90
2022-10-02T16:34:40.606Z,22.00
2022-10-02T16:37:22.204Z,22.20
2022-10-02T16:40:00.515Z,22.00
2022-10-02T16:42:43.750Z,22.10
2022-10-02T16:45:43.397Z,21.90
2022-10-02T16:48:16.177Z,21.80
2022-10-02T16:51:18.651Z,22.10
2022-10-02T16:53:55.802Z,22.10
2022-10-02T16:56:32.497Z,22.00
2022-10-02T16:59:10.640Z,21.90
2022-10-02T17:02:05.832Z,21.90
2022-10-02T17:04:49.969Z,22.00
2022-10-02T17:07:37.287Z,21.80
2022-10-02T17:10:24.003Z,22.00
2022-10-02T17:12:59.701Z,21.60
2022-10-02T17:15:35.515Z,21.50
2022-10-02T17:18:17.468Z,21.80
2022-10-02T17:20:49.804Z,21.70
2022-10-02T17:23:27.445Z,21.50
2022-10-02T17:26:05.624Z,21.70
2022-10-02T17:28:42.390Z,21.50
2022-10-02T17:31:35.428Z,21.50
2022-10-02T17:34:19.857Z,21.40
2022-10-02T17:37:07.708Z,21.50
2022-10-02T17:39:49.046Z,21.60
2022-10-02T17:42:32.554Z,21.40
2022-10-02T17:45:16.173Z,21.40
2022-10-02T17:47:59.322Z,21.20
2022-10-02T17:51:18.616Z,21.50
2022-10-02T17:54:26.949Z,21.30
2022-10-02T17:57:22.653Z,21.40
2022-10-02T18:00:09.833Z,21.30
2022-10-02T18:03:03.392Z,21.30
2022-10-02T18:05:50.837Z,21.30
2022-10-02T18:09:00.253Z,21.30
2022-10-02T18:11:57.015Z,21.20
2022-10-02T18:14:57.694Z,21.40
2022-10-02T18:17:42.584Z,21.50
2022-10-02T18:20:25.878Z,21.30
2022-10-02T18:23:20.119Z,21.40
2022-10-02T18:26:05.257Z,21.50
2022-10-02T18:28:53.542Z,21.50
2022-10-02T18:31:55.377Z,21.30
2022-10-02T18:34:57.019Z,21.50
2022-10-02T18:37:47.399Z,21.40
2022-10-02T18:40:23.631Z,21.50
2022-10-02T18:43:15.951Z,21.40
2022-10-02T18:45:55.840Z,21.40
2022-10-02T18:48:43.655Z,21.40
2022-10-02T18:51:30.025Z,21.20
2022-10-02T18:54:18.771Z,21.50
2022-10-02T18:57:02.133Z,21.30
2022-10-02T18:59:45.941Z,21.20
2022-10-02T19:02:29.751Z,21.00
2022-10-02T19:05:21.685Z,21.40
2022-10-02T19:07:57.136Z,21.40
2022-10-02T19:10:29.680Z,21.20
2022-10-02T19:13:02.629Z,21.40
2022-10-02T19:15:33.182Z,21.10
2022-10-02T19:18:03.414Z,21.40
2022-10-02T19:20:48.139Z,21.20
2022-10-02T19:23:28.128Z,21.40
2022-10-02T19:25:59.726Z,21.20
2022-10-02T19:28:31.730Z,21.30
2022-10-02T19:31:04.385Z,21.20
2022-10-02T19:33:42.107Z,21.20
2022-10-02T19:36:18.341Z,21.20
2022-10-02T19:38:54.194Z,21.30
2022-10-02T19:41:23.612Z,21.20
2022-10-02T19:43:59.801Z,21.10
2022-10-02T19:46:37.104Z,21.00
2022-10-02T19:49:08.231Z,21.50
2022-10-02T19:51:48.004Z,21.30
2022-10-02T19:54:22.945Z,21.20
2022-10-02T19:56:58.277Z,21.20
2022-10-02T19:59:30.821Z,21.30
2022-10-02T20:02:05.059Z,21.00
2022-10-02T20:04:33.375Z,21.20
2022-10-02T20:07:02.683Z,21.10
2022-10-02T20:09:37.212Z,21.10
2022-10-02T20:12:11.420Z,21.20
2022-10-02T20:14:44.076Z,21.30
2022-10-02T20:17:13.672Z,21.10
2022-10-02T20:19:51.625Z,21.20
2022-10-02T20:22:31.357Z,21.30
2022-10-02T20:25:06.370Z,21.10
2022-10-02T20:27:43.573Z,21.40
2022-10-02T20:30:16.761Z,21.20
2022-10-02T20:32:52.080Z,20.70
2022-10-02T20:35:29.007Z,21.00
2022-10-02T20:38:02.413Z,21.20
2022-10-02T20:40:34.793Z,21.00
2022-10-02T20:43:09.509Z,21.10
2022-10-02T20:45:44.256Z,20.90
2022-10-02T20:49:07.653Z,21.10
2022-10-02T20:52:17.076Z,20.90
2022-10-02T20:54:54.960Z,20.90
2022-10-02T20:58:01.104Z,21.20
2022-10-02T21:00:44.163Z,21.20
2022-10-02T21:03:55.432Z,21.10
2022-10-02T21:06:47.189Z,21.30
2022-10-02T21:10:25.370Z,20.90
2022-10-02T21:13:55.992Z,20.90
2022-10-02T21:16:51.009Z,21.20
2022-10-02T21:19:41.749Z,21.10
2022-10-02T21:23:07.665Z,21.00
2022-10-02T21:26:26.787Z,21.00
2022-10-02T21:29:34.895Z,21.10
2022-10-02T21:32:34.768Z,21.20
2022-10-02T21:35:16.371Z,20.80
2022-10-02T21:38:01.153Z,20.80
2022-10-02T21:41:10.567Z,21.20
2022-10-02T21:44:29.856Z,21.10
2022-10-02T21:47:58.004Z,20.90
2022-10-02T21:51:06.695Z,20.90
2022-10-02T21:54:33.053Z,21.10
2022-10-02T21:57:44.403Z,21.10
2022-10-02T22:00:16.211Z,21.10
2022-10-02T22:03:41.625Z,21.10
2022-10-02T22:06:27.809Z,20.80
2022-10-02T22:09:17.382Z,20.90
2022-10-02T22:12:06.818Z,21.10
2022-10-02T22:14:37.717Z,20.90
2022-10-02T22:17:17.299Z,20.70
2022-10-02T22:20:17.473Z,21.00
2022-10-02T22:23:08.122Z,20.70
2022-10-02T22:25:55.927Z,20.50
2022-10-02T22:28:37.167Z,20.70
2022-10-02T22:31:46.318Z,20.80
2022-10-02T22:34:35.122Z,20.60
2022-10-02T22:37:42.746Z,20.40
2022-10-02T22:40:19.501Z,20.90
2022-10-02T22:42:55.016Z,21.10
2022-10-02T22:45:32.248Z,21.00
2022-10-02T22:48:07.233Z,20.70
2022-10-02T22:50:45.330Z,20.50
2022-10-02T22:53:20.227Z,20.70
2022-10-02T22:55:54.796Z,20.40
2022-10-02T22:58:31.649Z,20.70
2022-10-02T23:01:07.582Z,20.40
2022-10-02T23:03:44.140Z,20.70
2022-10-02T23:06:25.448Z,20.70
2022-10-02T23:09:02.330Z,20.40
2022-10-02T23:11:43.904Z,20.30
2022-10-02T23:14:23.161Z,20.40
2022-10-02T23:16:57.969Z,20.70
2022-10-02T23:19:32.956Z,20.30
2022-10-02T23:22:08.523Z,20.60
2022-10-02T23:25:00.240Z,20.90
2022-10-02T23:27:39.431Z,20.40
2022-10-02T23:30:12.440Z,20.50
2022-10-02T23:32:49.697Z,20.30
2022-10-02T23:35:30.111Z,20.30
2022-10-02T23:38:07.454Z,20.50
2022-10-02T23:41:17.524Z,20.30
2022-10-02T23:43:57.716Z,20.50
2022-10-02T23:46:34.488Z,20.50
2022-10-02T23:49:04.004Z,20.30
2022-10-02T23:51:45.465Z,20.40
2022-10-02T23:54:34.733Z,20.40
2022-10-02T23:57:35.011Z,20.30
